sensor_id;sensor_type;location;lat;lon;timestamp;P1;durP1;ratioP1;P2;durP2;ratioP2
48100;SDS011;33878;47.442;18.916;2022-07-29T00:01:36;5.00;;;3.03;;
48100;SDS011;33878;47.442;18.916;2022-07-29T00:04:22;4.62;;;3.45;;
48100;SDS011;33878;47.442;18.916;2022-07-29T00:07:09;7.37;;;3.22;;
48100;SDS011;33878;47.442;18.916;2022-07-29T00:09:57;4.55;;;3.05;;
48100;SDS011;33878;47.442;18.916;2022-07-29T00:12:44;5.35;;;3.12;;
48100;SDS011;33878;47.442;18.916;2022-07-29T00:15:31;7.22;;;3.15;;
48100;SDS011;33878;47.442;18.916;2022-07-29T00:18:18;5.07;;;3.12;;
48100;SDS011;33878;47.442;18.916;2022-07-29T00:21:04;7.50;;;3.60;;
48100;SDS011;33878;47.442;18.916;2022-07-29T00:23:50;4.95;;;3.53;;
48100;SDS011;33878;47.442;18.916;2022-07-29T00:26:37;7.28;;;3.60;;
48100;SDS011;33878;47.442;18.916;2022-07-29T00:29:23;6.57;;;3.30;;
48100;SDS011;33878;47.442;18.916;2022-07-29T00:32:19;6.28;;;3.70;;
48100;SDS011;33878;47.442;18.916;2022-07-29T00:35:06;8.02;;;3.50;;
48100;SDS011;33878;47.442;18.916;2022-07-29T00:38:12;6.57;;;3.72;;
48100;SDS011;33878;47.442;18.916;2022-07-29T00:40:59;6.30;;;3.12;;
48100;SDS011;33878;47.442;18.916;2022-07-29T00:43:45;7.00;;;3.50;;
48100;SDS011;33878;47.442;18.916;2022-07-29T00:46:32;6.72;;;3.80;;
48100;SDS011;33878;47.442;18.916;2022-07-29T00:49:18;6.90;;;3.58;;
48100;SDS011;33878;47.442;18.916;2022-07-29T00:52:05;6.05;;;3.40;;
48100;SDS011;33878;47.442;18.916;2022-07-29T00:54:52;4.65;;;3.33;;
48100;SDS011;33878;47.442;18.916;2022-07-29T00:57:38;5.85;;;3.65;;
48100;SDS011;33878;47.442;18.916;2022-07-29T01:00:26;7.32;;;3.72;;
48100;SDS011;33878;47.442;18.916;2022-07-29T01:03:14;5.07;;;3.80;;
48100;SDS011;33878;47.442;18.916;2022-07-29T01:06:00;6.50;;;3.75;;
48100;SDS011;33878;47.442;18.916;2022-07-29T01:08:47;6.70;;;3.55;;
48100;SDS011;33878;47.442;18.916;2022-07-29T01:11:34;6.10;;;3.40;;
48100;SDS011;33878;47.442;18.916;2022-07-29T01:14:21;6.82;;;3.80;;
48100;SDS011;33878;47.442;18.916;2022-07-29T01:17:12;8.73;;;3.90;;
48100;SDS011;33878;47.442;18.916;2022-07-29T01:20:30;8.60;;;4.10;;
48100;SDS011;33878;47.442;18.916;2022-07-29T01:29:38;7.93;;;3.75;;
48100;SDS011;33878;47.442;18.916;2022-07-29T01:32:35;7.50;;;3.50;;
48100;SDS011;33878;47.442;18.916;2022-07-29T01:35:23;4.90;;;3.80;;
48100;SDS011;33878;47.442;18.916;2022-07-29T01:38:21;6.28;;;3.60;;
48100;SDS011;33878;47.442;18.916;2022-07-29T01:41:13;4.90;;;4.10;;
48100;SDS011;33878;47.442;18.916;2022-07-29T01:44:15;5.83;;;3.60;;
48100;SDS011;33878;47.442;18.916;2022-07-29T01:47:10;5.57;;;3.87;;
48100;SDS011;33878;47.442;18.916;2022-07-29T01:49:58;5.03;;;3.65;;
48100;SDS011;33878;47.442;18.916;2022-07-29T01:55:45;5.65;;;3.65;;
48100;SDS011;33878;47.442;18.916;2022-07-29T01:58:31;6.35;;;3.47;;
48100;SDS011;33878;47.442;18.916;2022-07-29T02:01:18;6.18;;;4.10;;
48100;SDS011;33878;47.442;18.916;2022-07-29T02:04:06;6.05;;;4.37;;
48100;SDS011;33878;47.442;18.916;2022-07-29T02:06:57;7.28;;;3.85;;
48100;SDS011;33878;47.442;18.916;2022-07-29T02:09:45;6.87;;;4.00;;
48100;SDS011;33878;47.442;18.916;2022-07-29T02:12:33;6.95;;;4.03;;
48100;SDS011;33878;47.442;18.916;2022-07-29T02:15:22;4.75;;;3.92;;
48100;SDS011;33878;47.442;18.916;2022-07-29T02:18:16;7.25;;;4.00;;
48100;SDS011;33878;47.442;18.916;2022-07-29T02:21:04;6.05;;;3.78;;
48100;SDS011;33878;47.442;18.916;2022-07-29T02:24:00;6.62;;;4.07;;
48100;SDS011;33878;47.442;18.916;2022-07-29T02:26:47;9.45;;;4.03;;
48100;SDS011;33878;47.442;18.916;2022-07-29T02:29:36;5.07;;;3.90;;
48100;SDS011;33878;47.442;18.916;2022-07-29T02:32:23;8.82;;;3.92;;
48100;SDS011;33878;47.442;18.916;2022-07-29T02:35:10;6.90;;;4.20;;
48100;SDS011;33878;47.442;18.916;2022-07-29T02:37:59;5.90;;;4.10;;
48100;SDS011;33878;47.442;18.916;2022-07-29T02:41:08;5.57;;;3.60;;
48100;SDS011;33878;47.442;18.916;2022-07-29T02:43:58;9.63;;;4.68;;
48100;SDS011;33878;47.442;18.916;2022-07-29T02:49:48;7.05;;;4.12;;
48100;SDS011;33878;47.442;18.916;2022-07-29T02:52:40;5.40;;;4.05;;
48100;SDS011;33878;47.442;18.916;2022-07-29T02:56:16;7.10;;;3.87;;
48100;SDS011;33878;47.442;18.916;2022-07-29T02:58:45;5.72;;;4.10;;
48100;SDS011;33878;47.442;18.916;2022-07-29T03:01:34;6.07;;;4.18;;
48100;SDS011;33878;47.442;18.916;2022-07-29T03:04:21;8.23;;;4.43;;
48100;SDS011;33878;47.442;18.916;2022-07-29T03:07:08;5.15;;;3.70;;
48100;SDS011;33878;47.442;18.916;2022-07-29T03:09:56;5.20;;;3.83;;
48100;SDS011;33878;47.442;18.916;2022-07-29T03:12:43;8.13;;;4.40;;
48100;SDS011;33878;47.442;18.916;2022-07-29T03:15:29;6.87;;;4.20;;
48100;SDS011;33878;47.442;18.916;2022-07-29T03:18:16;8.48;;;4.50;;
48100;SDS011;33878;47.442;18.916;2022-07-29T03:21:03;5.03;;;4.03;;
48100;SDS011;33878;47.442;18.916;2022-07-29T03:23:50;7.12;;;4.22;;
48100;SDS011;33878;47.442;18.916;2022-07-29T03:26:36;7.43;;;4.20;;
48100;SDS011;33878;47.442;18.916;2022-07-29T03:29:23;7.00;;;4.10;;
48100;SDS011;33878;47.442;18.916;2022-07-29T03:32:18;6.90;;;4.25;;
48100;SDS011;33878;47.442;18.916;2022-07-29T03:35:10;7.35;;;4.22;;
48100;SDS011;33878;47.442;18.916;2022-07-29T03:37:56;7.62;;;4.70;;
48100;SDS011;33878;47.442;18.916;2022-07-29T03:40:46;6.80;;;4.47;;
48100;SDS011;33878;47.442;18.916;2022-07-29T03:43:35;7.78;;;4.47;;
48100;SDS011;33878;47.442;18.916;2022-07-29T03:46:35;7.82;;;4.35;;
48100;SDS011;33878;47.442;18.916;2022-07-29T03:49:22;6.57;;;4.18;;
48100;SDS011;33878;47.442;18.916;2022-07-29T03:52:10;6.15;;;4.35;;
48100;SDS011;33878;47.442;18.916;2022-07-29T03:54:56;7.78;;;4.57;;
48100;SDS011;33878;47.442;18.916;2022-07-29T03:57:43;5.65;;;3.95;;
48100;SDS011;33878;47.442;18.916;2022-07-29T04:00:30;5.45;;;4.03;;
48100;SDS011;33878;47.442;18.916;2022-07-29T04:03:17;6.12;;;4.45;;
48100;SDS011;33878;47.442;18.916;2022-07-29T04:06:04;7.50;;;4.40;;
48100;SDS011;33878;47.442;18.916;2022-07-29T04:08:52;6.47;;;4.40;;
48100;SDS011;33878;47.442;18.916;2022-07-29T04:11:39;5.80;;;4.30;;
48100;SDS011;33878;47.442;18.916;2022-07-29T04:14:46;8.40;;;4.18;;
48100;SDS011;33878;47.442;18.916;2022-07-29T04:17:33;7.15;;;4.10;;
48100;SDS011;33878;47.442;18.916;2022-07-29T04:20:20;6.53;;;4.07;;
48100;SDS011;33878;47.442;18.916;2022-07-29T04:23:06;6.78;;;4.00;;
48100;SDS011;33878;47.442;18.916;2022-07-29T04:25:52;8.63;;;4.45;;
48100;SDS011;33878;47.442;18.916;2022-07-29T04:28:39;7.07;;;4.50;;
48100;SDS011;33878;47.442;18.916;2022-07-29T04:31:26;8.35;;;4.37;;
48100;SDS011;33878;47.442;18.916;2022-07-29T04:34:13;9.23;;;4.43;;
48100;SDS011;33878;47.442;18.916;2022-07-29T04:37:00;6.95;;;3.72;;
48100;SDS011;33878;47.442;18.916;2022-07-29T04:39:46;8.85;;;4.30;;
48100;SDS011;33878;47.442;18.916;2022-07-29T04:42:32;7.80;;;4.20;;
48100;SDS011;33878;47.442;18.916;2022-07-29T04:45:28;5.82;;;4.43;;
48100;SDS011;33878;47.442;18.916;2022-07-29T04:48:15;8.73;;;4.85;;
48100;SDS011;33878;47.442;18.916;2022-07-29T04:51:01;6.47;;;4.15;;
48100;SDS011;33878;47.442;18.916;2022-07-29T04:53:47;8.38;;;4.22;;
48100;SDS011;33878;47.442;18.916;2022-07-29T04:56:34;6.55;;;4.20;;
48100;SDS011;33878;47.442;18.916;2022-07-29T04:59:20;7.57;;;4.00;;
48100;SDS011;33878;47.442;18.916;2022-07-29T05:02:06;6.82;;;4.05;;
48100;SDS011;33878;47.442;18.916;2022-07-29T05:04:53;8.82;;;4.50;;
48100;SDS011;33878;47.442;18.916;2022-07-29T05:07:39;6.45;;;4.28;;
48100;SDS011;33878;47.442;18.916;2022-07-29T05:10:26;9.52;;;4.62;;
48100;SDS011;33878;47.442;18.916;2022-07-29T05:13:13;10.90;;;4.72;;
48100;SDS011;33878;47.442;18.916;2022-07-29T05:15:59;6.57;;;4.50;;
48100;SDS011;33878;47.442;18.916;2022-07-29T05:18:45;9.70;;;4.95;;
48100;SDS011;33878;47.442;18.916;2022-07-29T05:21:32;8.10;;;4.43;;
48100;SDS011;33878;47.442;18.916;2022-07-29T05:24:18;11.35;;;4.55;;
48100;SDS011;33878;47.442;18.916;2022-07-29T05:27:05;6.40;;;4.40;;
48100;SDS011;33878;47.442;18.916;2022-07-29T05:29:51;7.03;;;4.75;;
48100;SDS011;33878;47.442;18.916;2022-07-29T05:32:37;6.93;;;4.43;;
48100;SDS011;33878;47.442;18.916;2022-07-29T05:35:24;7.45;;;4.80;;
48100;SDS011;33878;47.442;18.916;2022-07-29T05:38:10;6.43;;;4.90;;
48100;SDS011;33878;47.442;18.916;2022-07-29T05:40:57;7.85;;;4.80;;
48100;SDS011;33878;47.442;18.916;2022-07-29T05:43:44;10.63;;;5.22;;
48100;SDS011;33878;47.442;18.916;2022-07-29T05:46:31;9.02;;;5.00;;
48100;SDS011;33878;47.442;18.916;2022-07-29T05:49:17;7.90;;;5.10;;
48100;SDS011;33878;47.442;18.916;2022-07-29T05:52:12;7.47;;;5.22;;
48100;SDS011;33878;47.442;18.916;2022-07-29T05:54:59;8.43;;;5.20;;
48100;SDS011;33878;47.442;18.916;2022-07-29T05:57:48;7.70;;;5.22;;
48100;SDS011;33878;47.442;18.916;2022-07-29T06:00:34;10.98;;;5.00;;
48100;SDS011;33878;47.442;18.916;2022-07-29T06:03:21;6.78;;;5.07;;
48100;SDS011;33878;47.442;18.916;2022-07-29T06:06:07;8.98;;;5.65;;
48100;SDS011;33878;47.442;18.916;2022-07-29T06:08:53;8.93;;;5.10;;
48100;SDS011;33878;47.442;18.916;2022-07-29T06:11:40;7.47;;;5.28;;
48100;SDS011;33878;47.442;18.916;2022-07-29T06:14:26;7.47;;;5.18;;
48100;SDS011;33878;47.442;18.916;2022-07-29T06:17:15;7.97;;;4.85;;
48100;SDS011;33878;47.442;18.916;2022-07-29T06:20:02;7.65;;;5.03;;
48100;SDS011;33878;47.442;18.916;2022-07-29T06:22:49;9.02;;;5.10;;
48100;SDS011;33878;47.442;18.916;2022-07-29T06:25:36;11.80;;;5.43;;
48100;SDS011;33878;47.442;18.916;2022-07-29T06:28:22;9.02;;;5.57;;
48100;SDS011;33878;47.442;18.916;2022-07-29T06:31:09;10.43;;;5.05;;
48100;SDS011;33878;47.442;18.916;2022-07-29T06:33:55;6.47;;;5.37;;
48100;SDS011;33878;47.442;18.916;2022-07-29T06:36:42;6.25;;;5.22;;
48100;SDS011;33878;47.442;18.916;2022-07-29T06:39:28;8.75;;;6.10;;
48100;SDS011;33878;47.442;18.916;2022-07-29T06:42:15;7.93;;;5.32;;
48100;SDS011;33878;47.442;18.916;2022-07-29T06:45:01;9.85;;;5.78;;
48100;SDS011;33878;47.442;18.916;2022-07-29T06:47:54;10.13;;;5.40;;
48100;SDS011;33878;47.442;18.916;2022-07-29T06:50:40;9.38;;;5.65;;
48100;SDS011;33878;47.442;18.916;2022-07-29T06:53:27;10.27;;;5.93;;
48100;SDS011;33878;47.442;18.916;2022-07-29T06:56:13;10.25;;;5.75;;
48100;SDS011;33878;47.442;18.916;2022-07-29T06:58:59;9.82;;;5.60;;
48100;SDS011;33878;47.442;18.916;2022-07-29T07:01:46;9.82;;;5.45;;
48100;SDS011;33878;47.442;18.916;2022-07-29T07:04:32;10.00;;;5.72;;
48100;SDS011;33878;47.442;18.916;2022-07-29T07:07:18;12.35;;;6.07;;
48100;SDS011;33878;47.442;18.916;2022-07-29T07:10:06;14.18;;;5.80;;
48100;SDS011;33878;47.442;18.916;2022-07-29T07:12:52;8.18;;;5.57;;
48100;SDS011;33878;47.442;18.916;2022-07-29T07:15:38;9.23;;;5.82;;
48100;SDS011;33878;47.442;18.916;2022-07-29T07:18:25;7.53;;;5.70;;
48100;SDS011;33878;47.442;18.916;2022-07-29T07:21:11;10.05;;;5.90;;
48100;SDS011;33878;47.442;18.916;2022-07-29T07:24:04;14.00;;;6.35;;
48100;SDS011;33878;47.442;18.916;2022-07-29T07:26:50;9.27;;;5.40;;
48100;SDS011;33878;47.442;18.916;2022-07-29T07:29:37;9.18;;;5.60;;
48100;SDS011;33878;47.442;18.916;2022-07-29T07:32:29;9.88;;;5.80;;
48100;SDS011;33878;47.442;18.916;2022-07-29T07:35:15;8.82;;;5.97;;
48100;SDS011;33878;47.442;18.916;2022-07-29T07:38:02;11.35;;;5.70;;
48100;SDS011;33878;47.442;18.916;2022-07-29T07:40:48;6.75;;;5.40;;
48100;SDS011;33878;47.442;18.916;2022-07-29T07:43:34;10.77;;;6.12;;
48100;SDS011;33878;47.442;18.916;2022-07-29T07:46:21;11.40;;;6.07;;
48100;SDS011;33878;47.442;18.916;2022-07-29T07:49:07;7.55;;;6.10;;
48100;SDS011;33878;47.442;18.916;2022-07-29T07:51:53;10.38;;;6.37;;
48100;SDS011;33878;47.442;18.916;2022-07-29T07:54:40;8.07;;;6.15;;
48100;SDS011;33878;47.442;18.916;2022-07-29T07:57:26;8.35;;;5.82;;
48100;SDS011;33878;47.442;18.916;2022-07-29T08:00:13;12.75;;;6.50;;
48100;SDS011;33878;47.442;18.916;2022-07-29T08:03:01;11.80;;;6.12;;
48100;SDS011;33878;47.442;18.916;2022-07-29T08:06:02;11.90;;;6.43;;
48100;SDS011;33878;47.442;18.916;2022-07-29T08:08:49;10.35;;;6.78;;
48100;SDS011;33878;47.442;18.916;2022-07-29T08:11:36;9.27;;;6.57;;
48100;SDS011;33878;47.442;18.916;2022-07-29T08:14:37;10.55;;;6.40;;
48100;SDS011;33878;47.442;18.916;2022-07-29T08:17:23;9.15;;;6.07;;
48100;SDS011;33878;47.442;18.916;2022-07-29T08:20:10;10.75;;;6.45;;
48100;SDS011;33878;47.442;18.916;2022-07-29T08:22:56;8.02;;;6.20;;
48100;SDS011;33878;47.442;18.916;2022-07-29T08:25:42;10.50;;;6.45;;
48100;SDS011;33878;47.442;18.916;2022-07-29T08:28:28;8.13;;;6.25;;
48100;SDS011;33878;47.442;18.916;2022-07-29T08:31:14;10.43;;;5.90;;
48100;SDS011;33878;47.442;18.916;2022-07-29T08:34:01;8.88;;;6.03;;
48100;SDS011;33878;47.442;18.916;2022-07-29T08:36:48;9.68;;;6.47;;
48100;SDS011;33878;47.442;18.916;2022-07-29T08:39:36;10.13;;;6.22;;
48100;SDS011;33878;47.442;18.916;2022-07-29T08:42:22;8.85;;;5.85;;
48100;SDS011;33878;47.442;18.916;2022-07-29T08:45:08;7.60;;;6.03;;
48100;SDS011;33878;47.442;18.916;2022-07-29T08:47:55;8.75;;;6.57;;
48100;SDS011;33878;47.442;18.916;2022-07-29T08:50:42;9.63;;;6.00;;
48100;SDS011;33878;47.442;18.916;2022-07-29T08:53:31;8.30;;;6.40;;
48100;SDS011;33878;47.442;18.916;2022-07-29T08:56:18;8.95;;;5.68;;
48100;SDS011;33878;47.442;18.916;2022-07-29T08:59:05;15.90;;;6.82;;
48100;SDS011;33878;47.442;18.916;2022-07-29T09:01:53;9.13;;;6.55;;
48100;SDS011;33878;47.442;18.916;2022-07-29T09:04:41;10.02;;;5.95;;
48100;SDS011;33878;47.442;18.916;2022-07-29T09:07:27;9.68;;;6.03;;
48100;SDS011;33878;47.442;18.916;2022-07-29T09:10:19;11.82;;;6.15;;
48100;SDS011;33878;47.442;18.916;2022-07-29T09:13:06;8.98;;;5.75;;
48100;SDS011;33878;47.442;18.916;2022-07-29T09:15:52;8.85;;;5.62;;
48100;SDS011;33878;47.442;18.916;2022-07-29T09:18:40;9.50;;;6.00;;
48100;SDS011;33878;47.442;18.916;2022-07-29T09:21:28;11.02;;;5.87;;
48100;SDS011;33878;47.442;18.916;2022-07-29T09:24:44;7.90;;;5.22;;
48100;SDS011;33878;47.442;18.916;2022-07-29T09:27:33;10.27;;;5.60;;
48100;SDS011;33878;47.442;18.916;2022-07-29T09:30:19;11.95;;;5.53;;
48100;SDS011;33878;47.442;18.916;2022-07-29T09:33:16;11.32;;;5.78;;
48100;SDS011;33878;47.442;18.916;2022-07-29T09:36:06;10.18;;;5.60;;
48100;SDS011;33878;47.442;18.916;2022-07-29T09:39:00;8.25;;;5.50;;
48100;SDS011;33878;47.442;18.916;2022-07-29T09:41:50;9.65;;;6.12;;
48100;SDS011;33878;47.442;18.916;2022-07-29T09:44:50;9.85;;;5.15;;
48100;SDS011;33878;47.442;18.916;2022-07-29T09:47:46;7.40;;;5.32;;
48100;SDS011;33878;47.442;18.916;2022-07-29T09:50:35;9.90;;;5.03;;
48100;SDS011;33878;47.442;18.916;2022-07-29T09:53:31;8.85;;;4.85;;
48100;SDS011;33878;47.442;18.916;2022-07-29T09:56:19;7.70;;;5.20;;
48100;SDS011;33878;47.442;18.916;2022-07-29T09:59:05;9.43;;;5.07;;
48100;SDS011;33878;47.442;18.916;2022-07-29T10:01:52;10.20;;;5.28;;
48100;SDS011;33878;47.442;18.916;2022-07-29T10:04:40;6.70;;;5.00;;
48100;SDS011;33878;47.442;18.916;2022-07-29T10:07:27;6.65;;;5.18;;
48100;SDS011;33878;47.442;18.916;2022-07-29T10:10:30;8.20;;;5.00;;
48100;SDS011;33878;47.442;18.916;2022-07-29T10:13:19;6.15;;;4.82;;
48100;SDS011;33878;47.442;18.916;2022-07-29T10:16:05;5.15;;;4.37;;
48100;SDS011;33878;47.442;18.916;2022-07-29T10:18:52;6.37;;;5.15;;
48100;SDS011;33878;47.442;18.916;2022-07-29T10:21:38;8.20;;;4.68;;
48100;SDS011;33878;47.442;18.916;2022-07-29T10:24:29;6.40;;;4.75;;
48100;SDS011;33878;47.442;18.916;2022-07-29T10:27:16;8.07;;;3.83;;
48100;SDS011;33878;47.442;18.916;2022-07-29T10:30:03;9.15;;;4.80;;
48100;SDS011;33878;47.442;18.916;2022-07-29T10:41:39;6.43;;;4.62;;
48100;SDS011;33878;47.442;18.916;2022-07-29T10:44:39;7.78;;;4.82;;
48100;SDS011;33878;47.442;18.916;2022-07-29T10:47:26;7.05;;;4.78;;
48100;SDS011;33878;47.442;18.916;2022-07-29T10:50:13;8.02;;;4.32;;
48100;SDS011;33878;47.442;18.916;2022-07-29T10:53:02;6.15;;;3.78;;
48100;SDS011;33878;47.442;18.916;2022-07-29T10:55:54;9.57;;;4.37;;
48100;SDS011;33878;47.442;18.916;2022-07-29T10:58:41;7.55;;;4.97;;
48100;SDS011;33878;47.442;18.916;2022-07-29T11:01:37;4.72;;;3.95;;
48100;SDS011;33878;47.442;18.916;2022-07-29T11:07:29;11.48;;;4.18;;
48100;SDS011;33878;47.442;18.916;2022-07-29T11:10:31;4.65;;;3.90;;
48100;SDS011;33878;47.442;18.916;2022-07-29T11:16:57;9.07;;;4.15;;
48100;SDS011;33878;47.442;18.916;2022-07-29T11:19:45;8.10;;;4.22;;
48100;SDS011;33878;47.442;18.916;2022-07-29T11:22:36;6.37;;;3.92;;
48100;SDS011;33878;47.442;18.916;2022-07-29T11:25:32;6.93;;;4.07;;
48100;SDS011;33878;47.442;18.916;2022-07-29T11:28:38;8.10;;;4.37;;
48100;SDS011;33878;47.442;18.916;2022-07-29T11:31:46;6.55;;;4.35;;
48100;SDS011;33878;47.442;18.916;2022-07-29T11:34:37;7.20;;;4.05;;
48100;SDS011;33878;47.442;18.916;2022-07-29T11:37:27;8.95;;;4.50;;
48100;SDS011;33878;47.442;18.916;2022-07-29T11:40:16;7.32;;;4.30;;
48100;SDS011;33878;47.442;18.916;2022-07-29T11:43:03;6.65;;;3.97;;
48100;SDS011;33878;47.442;18.916;2022-07-29T11:45:53;7.43;;;4.12;;
48100;SDS011;33878;47.442;18.916;2022-07-29T11:48:42;7.75;;;4.18;;
48100;SDS011;33878;47.442;18.916;2022-07-29T11:51:30;17.60;;;4.95;;
48100;SDS011;33878;47.442;18.916;2022-07-29T11:54:21;11.18;;;4.90;;
48100;SDS011;33878;47.442;18.916;2022-07-29T11:57:12;7.03;;;4.32;;
48100;SDS011;33878;47.442;18.916;2022-07-29T12:00:01;8.13;;;4.20;;
48100;SDS011;33878;47.442;18.916;2022-07-29T12:02:55;4.95;;;3.92;;
48100;SDS011;33878;47.442;18.916;2022-07-29T12:05:45;5.77;;;4.27;;
48100;SDS011;33878;47.442;18.916;2022-07-29T12:08:51;21.27;;;5.60;;
48100;SDS011;33878;47.442;18.916;2022-07-29T12:11:38;6.45;;;4.70;;
48100;SDS011;33878;47.442;18.916;2022-07-29T12:17:27;5.62;;;4.07;;
48100;SDS011;33878;47.442;18.916;2022-07-29T12:20:25;7.78;;;4.07;;
48100;SDS011;33878;47.442;18.916;2022-07-29T12:23:13;5.70;;;4.00;;
48100;SDS011;33878;47.442;18.916;2022-07-29T12:26:04;5.78;;;3.70;;
48100;SDS011;33878;47.442;18.916;2022-07-29T12:28:55;6.10;;;3.92;;
48100;SDS011;33878;47.442;18.916;2022-07-29T12:31:41;5.60;;;4.28;;
48100;SDS011;33878;47.442;18.916;2022-07-29T12:34:30;7.68;;;3.92;;
48100;SDS011;33878;47.442;18.916;2022-07-29T12:37:16;15.23;;;4.22;;
48100;SDS011;33878;47.442;18.916;2022-07-29T12:40:04;15.88;;;4.50;;
48100;SDS011;33878;47.442;18.916;2022-07-29T12:43:10;13.57;;;4.57;;
48100;SDS011;33878;47.442;18.916;2022-07-29T12:46:10;16.98;;;4.10;;
48100;SDS011;33878;47.442;18.916;2022-07-29T12:51:44;5.90;;;4.07;;
48100;SDS011;33878;47.442;18.916;2022-07-29T12:54:30;9.15;;;3.97;;
48100;SDS011;33878;47.442;18.916;2022-07-29T12:57:17;5.82;;;3.90;;
48100;SDS011;33878;47.442;18.916;2022-07-29T13:00:09;8.55;;;4.32;;
48100;SDS011;33878;47.442;18.916;2022-07-29T13:02:58;5.10;;;3.80;;
48100;SDS011;33878;47.442;18.916;2022-07-29T13:05:45;7.20;;;3.67;;
48100;SDS011;33878;47.442;18.916;2022-07-29T13:08:34;8.07;;;4.10;;
48100;SDS011;33878;47.442;18.916;2022-07-29T13:11:28;5.07;;;4.10;;
48100;SDS011;33878;47.442;18.916;2022-07-29T13:14:31;6.15;;;3.85;;
48100;SDS011;33878;47.442;18.916;2022-07-29T13:17:19;4.62;;;3.72;;
48100;SDS011;33878;47.442;18.916;2022-07-29T13:20:09;6.30;;;3.90;;
48100;SDS011;33878;47.442;18.916;2022-07-29T13:22:59;13.77;;;3.83;;
48100;SDS011;33878;47.442;18.916;2022-07-29T13:25:45;6.35;;;4.12;;
48100;SDS011;33878;47.442;18.916;2022-07-29T13:28:32;5.70;;;3.80;;
48100;SDS011;33878;47.442;18.916;2022-07-29T13:31:18;8.25;;;4.20;;
48100;SDS011;33878;47.442;18.916;2022-07-29T13:34:05;6.87;;;3.70;;
48100;SDS011;33878;47.442;18.916;2022-07-29T13:36:52;5.45;;;4.07;;
48100;SDS011;33878;47.442;18.916;2022-07-29T13:39:38;11.35;;;3.92;;
48100;SDS011;33878;47.442;18.916;2022-07-29T13:42:25;9.25;;;4.00;;
48100;SDS011;33878;47.442;18.916;2022-07-29T13:45:12;7.80;;;3.75;;
48100;SDS011;33878;47.442;18.916;2022-07-29T13:47:58;4.95;;;3.80;;
48100;SDS011;33878;47.442;18.916;2022-07-29T13:50:44;3.97;;;3.58;;
48100;SDS011;33878;47.442;18.916;2022-07-29T13:53:32;5.90;;;4.00;;
48100;SDS011;33878;47.442;18.916;2022-07-29T13:56:19;7.07;;;4.03;;
48100;SDS011;33878;47.442;18.916;2022-07-29T13:59:04;4.82;;;3.55;;
48100;SDS011;33878;47.442;18.916;2022-07-29T14:01:51;5.85;;;3.60;;
48100;SDS011;33878;47.442;18.916;2022-07-29T14:04:38;6.85;;;4.00;;
48100;SDS011;33878;47.442;18.916;2022-07-29T14:07:24;5.00;;;3.58;;
48100;SDS011;33878;47.442;18.916;2022-07-29T14:10:10;5.95;;;3.90;;
48100;SDS011;33878;47.442;18.916;2022-07-29T14:12:58;6.40;;;3.75;;
48100;SDS011;33878;47.442;18.916;2022-07-29T14:15:44;5.28;;;3.87;;
48100;SDS011;33878;47.442;18.916;2022-07-29T14:18:30;4.93;;;3.87;;
48100;SDS011;33878;47.442;18.916;2022-07-29T14:21:17;7.68;;;3.83;;
48100;SDS011;33878;47.442;18.916;2022-07-29T14:24:03;6.90;;;3.95;;
48100;SDS011;33878;47.442;18.916;2022-07-29T14:27:06;5.10;;;4.25;;
48100;SDS011;33878;47.442;18.916;2022-07-29T14:29:54;8.68;;;4.15;;
48100;SDS011;33878;47.442;18.916;2022-07-29T14:32:40;6.50;;;3.87;;
48100;SDS011;33878;47.442;18.916;2022-07-29T14:35:26;6.65;;;4.15;;
48100;SDS011;33878;47.442;18.916;2022-07-29T14:38:13;6.55;;;4.43;;
48100;SDS011;33878;47.442;18.916;2022-07-29T14:40:59;7.40;;;4.00;;
48100;SDS011;33878;47.442;18.916;2022-07-29T14:43:46;4.78;;;3.92;;
48100;SDS011;33878;47.442;18.916;2022-07-29T14:46:33;5.12;;;4.00;;
48100;SDS011;33878;47.442;18.916;2022-07-29T14:49:19;6.05;;;4.00;;
48100;SDS011;33878;47.442;18.916;2022-07-29T14:52:06;5.68;;;4.20;;
48100;SDS011;33878;47.442;18.916;2022-07-29T14:54:52;5.82;;;4.18;;
48100;SDS011;33878;47.442;18.916;2022-07-29T14:57:38;4.22;;;3.75;;
48100;SDS011;33878;47.442;18.916;2022-07-29T15:00:25;6.40;;;4.03;;
48100;SDS011;33878;47.442;18.916;2022-07-29T15:03:11;6.95;;;4.40;;
48100;SDS011;33878;47.442;18.916;2022-07-29T15:06:09;7.93;;;4.10;;
48100;SDS011;33878;47.442;18.916;2022-07-29T15:08:55;5.18;;;4.20;;
48100;SDS011;33878;47.442;18.916;2022-07-29T15:11:41;4.90;;;3.65;;
48100;SDS011;33878;47.442;18.916;2022-07-29T15:14:28;9.55;;;4.35;;
48100;SDS011;33878;47.442;18.916;2022-07-29T15:17:15;7.82;;;4.37;;
48100;SDS011;33878;47.442;18.916;2022-07-29T15:20:01;7.05;;;3.83;;
48100;SDS011;33878;47.442;18.916;2022-07-29T15:22:48;7.05;;;3.80;;
48100;SDS011;33878;47.442;18.916;2022-07-29T15:25:34;5.45;;;4.60;;
48100;SDS011;33878;47.442;18.916;2022-07-29T15:28:22;6.40;;;3.90;;
48100;SDS011;33878;47.442;18.916;2022-07-29T15:31:08;6.53;;;5.10;;
48100;SDS011;33878;47.442;18.916;2022-07-29T15:33:55;7.35;;;4.25;;
48100;SDS011;33878;47.442;18.916;2022-07-29T15:36:45;7.75;;;4.00;;
48100;SDS011;33878;47.442;18.916;2022-07-29T15:39:38;6.85;;;3.87;;
48100;SDS011;33878;47.442;18.916;2022-07-29T15:42:24;9.20;;;4.15;;
48100;SDS011;33878;47.442;18.916;2022-07-29T15:45:11;7.32;;;4.20;;
48100;SDS011;33878;47.442;18.916;2022-07-29T15:47:57;7.05;;;4.32;;
48100;SDS011;33878;47.442;18.916;2022-07-29T15:50:43;5.40;;;3.83;;
48100;SDS011;33878;47.442;18.916;2022-07-29T15:53:31;4.97;;;3.83;;
48100;SDS011;33878;47.442;18.916;2022-07-29T15:56:20;7.22;;;3.80;;
48100;SDS011;33878;47.442;18.916;2022-07-29T15:59:06;6.15;;;4.18;;
48100;SDS011;33878;47.442;18.916;2022-07-29T16:01:53;6.47;;;4.25;;
48100;SDS011;33878;47.442;18.916;2022-07-29T16:04:40;7.43;;;4.75;;
48100;SDS011;33878;47.442;18.916;2022-07-29T16:07:26;7.68;;;4.07;;
48100;SDS011;33878;47.442;18.916;2022-07-29T16:10:17;10.55;;;4.00;;
48100;SDS011;33878;47.442;18.916;2022-07-29T16:13:03;4.97;;;4.18;;
48100;SDS011;33878;47.442;18.916;2022-07-29T16:15:49;9.68;;;4.45;;
48100;SDS011;33878;47.442;18.916;2022-07-29T16:18:47;9.10;;;4.03;;
48100;SDS011;33878;47.442;18.916;2022-07-29T16:21:33;7.50;;;3.90;;
48100;SDS011;33878;47.442;18.916;2022-07-29T16:24:20;4.93;;;3.85;;
48100;SDS011;33878;47.442;18.916;2022-07-29T16:27:07;4.62;;;3.75;;
48100;SDS011;33878;47.442;18.916;2022-07-29T16:29:53;8.45;;;4.28;;
48100;SDS011;33878;47.442;18.916;2022-07-29T16:32:40;6.93;;;3.78;;
48100;SDS011;33878;47.442;18.916;2022-07-29T16:35:27;5.20;;;3.78;;
48100;SDS011;33878;47.442;18.916;2022-07-29T16:38:25;8.35;;;4.10;;
48100;SDS011;33878;47.442;18.916;2022-07-29T16:41:12;8.85;;;4.45;;
48100;SDS011;33878;47.442;18.916;2022-07-29T16:43:58;5.55;;;4.53;;
48100;SDS011;33878;47.442;18.916;2022-07-29T16:46:45;6.15;;;4.22;;
48100;SDS011;33878;47.442;18.916;2022-07-29T16:49:33;6.25;;;4.15;;
48100;SDS011;33878;47.442;18.916;2022-07-29T16:52:19;5.93;;;3.97;;
48100;SDS011;33878;47.442;18.916;2022-07-29T17:00:53;5.72;;;4.25;;
48100;SDS011;33878;47.442;18.916;2022-07-29T17:03:39;5.78;;;4.20;;
48100;SDS011;33878;47.442;18.916;2022-07-29T17:06:46;5.70;;;4.10;;
48100;SDS011;33878;47.442;18.916;2022-07-29T17:09:34;8.82;;;4.43;;
48100;SDS011;33878;47.442;18.916;2022-07-29T17:12:20;8.23;;;4.90;;
48100;SDS011;33878;47.442;18.916;2022-07-29T17:15:07;6.68;;;4.40;;
48100;SDS011;33878;47.442;18.916;2022-07-29T17:17:55;9.80;;;4.72;;
48100;SDS011;33878;47.442;18.916;2022-07-29T17:20:42;8.52;;;4.80;;